EDT,Max TemperatureF,Mean TemperatureF,Min TemperatureF,Max Dew PointF,MeanDew PointF,Min DewpointF,Max Humidity, Mean Humidity, Min Humidity, Max Sea Level PressureIn, Mean Sea Level PressureIn, Min Sea Level PressureIn, Max VisibilityMiles, Mean VisibilityMiles, Min VisibilityMiles, Max Wind SpeedMPH, Mean Wind SpeedMPH, Max Gust SpeedMPH,PrecipitationIn, CloudCover, Events, WindDirDegrees
2013-8-1,82,74,66,70,66,63,100,78,55,30.07,29.99,29.91,10,8,1,21,5,26,0.57,5,Rain,345
2013-8-2,82,73,64,67,64,62,93,76,58,30.05,30.01,29.96,10,10,10,12,5,14,0.00,3,,320
2013-8-3,82,73,64,67,64,61,100,76,51,30.11,30.04,29.99,10,9,2,14,4,18,0.00,2,,340
2013-8-4,80,72,63,68,63,59,100,77,54,30.07,30.02,29.99,10,10,6,22,8,26,0.00,1,,350
2013-8-5,83,72,61,68,63,60,93,76,58,30.14,30.04,29.98,10,10,7,15,4,18,0.00,4,,177
2013-8-6,82,75,68,68,66,62,93,74,54,30.13,30.03,29.96,10,10,7,12,4,16,T,7,Rain,99
2013-8-7,73,71,68,70,69,66,100,94,87,30.16,30.10,30.01,10,6,1,14,4,17,0.76,8,Rain,160
2013-8-8,80,73,66,72,68,64,100,84,67,30.14,30.09,30.02,10,5,0,13,4,18,0.21,6,Fog-Rain-Thunderstorm,184
2013-8-9,83,76,68,73,70,66,97,83,69,30.16,30.09,30.03,10,7,1,13,2,16,0.63,3,Rain-Thunderstorm,208
2013-8-10,83,75,67,72,69,66,100,87,74,30.22,30.17,30.08,10,4,0,25,3,35,1.46,6,Fog-Rain-Thunderstorm,320
2013-8-11,82,74,66,73,68,66,100,84,67,30.24,30.17,30.09,10,5,0,13,4,15,0.34,6,Fog-Rain-Thunderstorm,332
2013-8-12,84,75,66,70,68,64,97,80,62,30.19,30.10,30.00,10,6,0,25,4,38,1.06,5,Fog-Rain-Thunderstorm,319
2013-8-13,83,75,67,72,68,65,100,81,62,30.09,29.98,29.85,10,4,0,16,4,22,0.12,7,Fog-Rain,321
2013-8-14,77,71,64,65,60,55,93,72,50,30.13,29.99,29.91,10,10,8,18,8,22,0.01,3,Rain,343
2013-8-15,67,62,57,61,56,52,97,80,63,30.22,30.13,30.06,10,10,8,9,2,13,0.00,7,,132
2013-8-16,72,64,56,59,57,53,100,79,57,30.23,30.14,30.09,10,10,7,10,3,15,T,6,,172
2013-8-17,68,64,59,63,58,54,100,84,67,30.25,30.18,30.14,10,9,2,8,3,10,0.13,8,Rain,175
2013-8-18,76,69,62,67,63,61,100,85,69,30.28,30.20,30.13,10,10,3,9,3,14,0.17,7,Rain,161
2013-8-19,73,69,64,66,64,63,100,87,73,30.27,30.19,30.11,10,7,1,9,1,13,1.38,8,Rain,175
2013-8-20,79,72,64,68,65,63,100,84,67,30.28,30.20,30.12,10,8,1,8,2,12,T,7,,121
2013-8-21,75,71,66,68,67,64,97,88,79,30.32,30.24,30.15,10,10,7,12,2,13,0.06,6,Rain,169
2013-8-22,84,75,65,69,66,64,100,78,55,30.26,30.18,30.06,10,7,0,13,3,17,T,5,,319
2013-8-23,83,73,63,67,64,62,100,78,55,30.17,30.09,30.00,10,6,1,16,6,22,0.00,4,,330
2013-8-24,78,71,64,65,61,56,100,74,47,30.32,30.22,30.09,10,9,5,12,2,15,0.00,5,,138
2013-8-25,76,65,53,60,57,52,100,75,50,30.41,30.34,30.30,10,10,10,9,2,15,0.00,1,,161
2013-8-26,80,68,55,62,57,54,100,76,51,30.38,30.30,30.17,10,6,0,16,5,18,0.00,2,Fog,322
2013-8-27,82,69,56,66,62,55,100,78,55,30.18,30.11,30.05,10,8,5,18,6,25,0.00,0,,345
2013-8-28,85,75,64,68,65,63,93,72,51,30.06,30.02,29.97,10,9,4,18,7,22,0.00,0,,338
2013-8-29,86,79,71,70,68,66,90,71,51,30.09,29.98,29.93,10,10,10,17,8,22,T,4,,346
2013-8-30,80,75,70,70,69,66,97,84,71,30.14,30.05,29.95,10,9,4,10,4,15,0.01,7,Rain-Thunderstorm,168
2013-8-31,86,77,67,70,67,64,100,80,59,30.07,29.99,29.91,10,6,0,22,3,29,0.07,5,Fog-Rain,271